sensor_id;sensor_type;location;lat;lon;timestamp;P1;durP1;ratioP1;P2;durP2;ratioP2
249;SDS011;109;19.806;-70.704;2024-03-22T00:02:08;14.33;;;6.07;;
249;SDS011;109;19.806;-70.704;2024-03-22T00:04:35;8.07;;;5.57;;
249;SDS011;109;19.806;-70.704;2024-03-22T00:07:02;8.93;;;5.40;;
249;SDS011;109;19.806;-70.704;2024-03-22T00:09:29;16.23;;;6.33;;
249;SDS011;109;19.806;-70.704;2024-03-22T00:11:56;20.50;;;7.33;;
249;SDS011;109;19.806;-70.704;2024-03-22T00:14:22;12.20;;;6.47;;
249;SDS011;109;19.806;-70.704;2024-03-22T00:16:49;7.47;;;5.23;;
249;SDS011;109;19.806;-70.704;2024-03-22T00:19:15;26.13;;;6.90;;
249;SDS011;109;19.806;-70.704;2024-03-22T00:21:42;28.73;;;8.00;;
249;SDS011;109;19.806;-70.704;2024-03-22T00:24:08;24.17;;;7.87;;
249;SDS011;109;19.806;-70.704;2024-03-22T00:26:35;37.83;;;7.60;;
249;SDS011;109;19.806;-70.704;2024-03-22T00:29:01;16.63;;;7.20;;
249;SDS011;109;19.806;-70.704;2024-03-22T00:31:28;13.00;;;7.00;;
249;SDS011;109;19.806;-70.704;2024-03-22T00:33:54;8.93;;;6.43;;
249;SDS011;109;19.806;-70.704;2024-03-22T00:36:21;13.10;;;5.70;;
249;SDS011;109;19.806;-70.704;2024-03-22T00:38:47;26.30;;;6.90;;
249;SDS011;109;19.806;-70.704;2024-03-22T00:41:14;22.80;;;7.37;;
249;SDS011;109;19.806;-70.704;2024-03-22T00:43:40;21.17;;;7.20;;
249;SDS011;109;19.806;-70.704;2024-03-22T00:46:06;39.53;;;9.73;;
249;SDS011;109;19.806;-70.704;2024-03-22T00:48:33;44.57;;;9.20;;
249;SDS011;109;19.806;-70.704;2024-03-22T00:51:01;48.70;;;9.10;;
249;SDS011;109;19.806;-70.704;2024-03-22T00:53:27;37.77;;;8.60;;
249;SDS011;109;19.806;-70.704;2024-03-22T00:55:55;38.97;;;9.50;;
249;SDS011;109;19.806;-70.704;2024-03-22T00:58:21;66.03;;;10.80;;
249;SDS011;109;19.806;-70.704;2024-03-22T01:00:48;72.37;;;11.60;;
249;SDS011;109;19.806;-70.704;2024-03-22T01:03:14;55.87;;;9.90;;
249;SDS011;109;19.806;-70.704;2024-03-22T01:05:41;58.20;;;11.30;;
249;SDS011;109;19.806;-70.704;2024-03-22T01:08:08;53.20;;;10.93;;
249;SDS011;109;19.806;-70.704;2024-03-22T01:10:34;32.30;;;7.97;;
249;SDS011;109;19.806;-70.704;2024-03-22T01:13:01;36.37;;;8.50;;
249;SDS011;109;19.806;-70.704;2024-03-22T01:15:27;39.63;;;10.60;;
249;SDS011;109;19.806;-70.704;2024-03-22T01:17:54;53.73;;;11.57;;
249;SDS011;109;19.806;-70.704;2024-03-22T01:20:45;58.53;;;13.33;;
249;SDS011;109;19.806;-70.704;2024-03-22T01:23:37;46.63;;;14.90;;
249;SDS011;109;19.806;-70.704;2024-03-22T01:26:28;33.90;;;11.60;;
249;SDS011;109;19.806;-70.704;2024-03-22T01:29:19;22.67;;;9.60;;
249;SDS011;109;19.806;-70.704;2024-03-22T01:32:11;23.20;;;8.53;;
249;SDS011;109;19.806;-70.704;2024-03-22T01:35:02;26.97;;;11.80;;
249;SDS011;109;19.806;-70.704;2024-03-22T01:37:54;27.33;;;11.50;;
249;SDS011;109;19.806;-70.704;2024-03-22T01:40:46;20.07;;;11.67;;
249;SDS011;109;19.806;-70.704;2024-03-22T01:43:37;13.53;;;10.57;;
249;SDS011;109;19.806;-70.704;2024-03-22T10:39:42;6.70;;;5.10;;
249;SDS011;109;19.806;-70.704;2024-03-22T10:42:11;17.73;;;5.43;;
249;SDS011;109;19.806;-70.704;2024-03-22T10:44:38;11.10;;;5.53;;
249;SDS011;109;19.806;-70.704;2024-03-22T10:47:05;7.73;;;5.90;;
249;SDS011;109;19.806;-70.704;2024-03-22T10:49:36;14.60;;;5.60;;
249;SDS011;109;19.806;-70.704;2024-03-22T10:52:06;7.20;;;5.70;;
249;SDS011;109;19.806;-70.704;2024-03-22T10:54:39;8.23;;;5.77;;
249;SDS011;109;19.806;-70.704;2024-03-22T10:57:12;17.00;;;6.50;;
249;SDS011;109;19.806;-70.704;2024-03-22T10:59:41;8.77;;;5.70;;
249;SDS011;109;19.806;-70.704;2024-03-22T11:02:10;9.30;;;8.00;;
249;SDS011;109;19.806;-70.704;2024-03-22T11:04:37;11.60;;;6.60;;
249;SDS011;109;19.806;-70.704;2024-03-22T11:07:03;10.90;;;7.20;;
249;SDS011;109;19.806;-70.704;2024-03-22T11:09:30;10.50;;;6.90;;
249;SDS011;109;19.806;-70.704;2024-03-22T11:11:57;15.53;;;6.97;;
249;SDS011;109;19.806;-70.704;2024-03-22T11:14:25;8.13;;;6.40;;
249;SDS011;109;19.806;-70.704;2024-03-22T11:16:51;11.50;;;7.50;;
249;SDS011;109;19.806;-70.704;2024-03-22T11:19:21;16.70;;;7.90;;
249;SDS011;109;19.806;-70.704;2024-03-22T11:21:47;13.70;;;8.00;;
249;SDS011;109;19.806;-70.704;2024-03-22T11:24:15;15.50;;;7.90;;
249;SDS011;109;19.806;-70.704;2024-03-22T11:26:41;10.50;;;7.90;;
249;SDS011;109;19.806;-70.704;2024-03-22T11:29:09;16.10;;;8.90;;
249;SDS011;109;19.806;-70.704;2024-03-22T11:31:36;12.07;;;8.53;;
249;SDS011;109;19.806;-70.704;2024-03-22T11:34:02;11.17;;;8.43;;
249;SDS011;109;19.806;-70.704;2024-03-22T11:36:29;10.53;;;9.10;;
249;SDS011;109;19.806;-70.704;2024-03-22T11:39:03;13.73;;;8.70;;
249;SDS011;109;19.806;-70.704;2024-03-22T11:41:30;13.17;;;9.00;;
249;SDS011;109;19.806;-70.704;2024-03-22T11:43:57;12.50;;;8.50;;
249;SDS011;109;19.806;-70.704;2024-03-22T11:46:26;13.07;;;9.30;;
249;SDS011;109;19.806;-70.704;2024-03-22T11:48:53;17.00;;;9.47;;
249;SDS011;109;19.806;-70.704;2024-03-22T11:51:20;16.10;;;8.53;;
249;SDS011;109;19.806;-70.704;2024-03-22T11:53:50;16.17;;;9.63;;
249;SDS011;109;19.806;-70.704;2024-03-22T11:56:22;17.97;;;8.70;;
249;SDS011;109;19.806;-70.704;2024-03-22T11:58:57;21.43;;;8.87;;
249;SDS011;109;19.806;-70.704;2024-03-22T12:01:24;17.43;;;8.23;;
249;SDS011;109;19.806;-70.704;2024-03-22T12:03:52;23.00;;;9.17;;
249;SDS011;109;19.806;-70.704;2024-03-22T12:06:20;14.27;;;10.33;;
249;SDS011;109;19.806;-70.704;2024-03-22T12:08:47;13.60;;;10.00;;
249;SDS011;109;19.806;-70.704;2024-03-22T12:11:13;13.20;;;8.57;;
249;SDS011;109;19.806;-70.704;2024-03-22T12:13:40;17.30;;;10.00;;
249;SDS011;109;19.806;-70.704;2024-03-22T12:16:06;15.40;;;9.13;;
249;SDS011;109;19.806;-70.704;2024-03-22T12:18:33;18.70;;;9.20;;
249;SDS011;109;19.806;-70.704;2024-03-22T12:21:00;19.17;;;8.70;;
249;SDS011;109;19.806;-70.704;2024-03-22T12:23:27;12.90;;;9.33;;
249;SDS011;109;19.806;-70.704;2024-03-22T12:25:54;16.90;;;9.60;;
249;SDS011;109;19.806;-70.704;2024-03-22T12:28:21;14.90;;;9.07;;
249;SDS011;109;19.806;-70.704;2024-03-22T12:30:49;14.47;;;9.03;;
249;SDS011;109;19.806;-70.704;2024-03-22T12:33:15;13.47;;;9.17;;
249;SDS011;109;19.806;-70.704;2024-03-22T12:35:42;21.30;;;10.17;;
249;SDS011;109;19.806;-70.704;2024-03-22T12:38:09;17.93;;;11.33;;
249;SDS011;109;19.806;-70.704;2024-03-22T12:40:39;21.20;;;10.80;;
249;SDS011;109;19.806;-70.704;2024-03-22T12:43:07;17.33;;;9.57;;
249;SDS011;109;19.806;-70.704;2024-03-22T12:45:37;13.70;;;9.27;;
249;SDS011;109;19.806;-70.704;2024-03-22T12:48:03;11.20;;;8.90;;
249;SDS011;109;19.806;-70.704;2024-03-22T12:50:30;17.40;;;10.23;;
249;SDS011;109;19.806;-70.704;2024-03-22T12:52:57;19.23;;;9.87;;
249;SDS011;109;19.806;-70.704;2024-03-22T12:55:23;11.73;;;8.40;;
249;SDS011;109;19.806;-70.704;2024-03-22T12:57:51;15.53;;;9.63;;
249;SDS011;109;19.806;-70.704;2024-03-22T13:00:17;21.97;;;9.33;;
249;SDS011;109;19.806;-70.704;2024-03-22T13:02:44;15.70;;;8.70;;
249;SDS011;109;19.806;-70.704;2024-03-22T13:05:12;19.33;;;9.40;;
249;SDS011;109;19.806;-70.704;2024-03-22T13:07:39;23.50;;;7.30;;
249;SDS011;109;19.806;-70.704;2024-03-22T13:10:05;12.70;;;7.30;;
249;SDS011;109;19.806;-70.704;2024-03-22T13:12:32;13.77;;;7.20;;
249;SDS011;109;19.806;-70.704;2024-03-22T13:15:00;13.63;;;6.87;;
249;SDS011;109;19.806;-70.704;2024-03-22T13:17:27;10.50;;;6.33;;
249;SDS011;109;19.806;-70.704;2024-03-22T13:19:53;11.03;;;6.90;;
249;SDS011;109;19.806;-70.704;2024-03-22T13:22:20;14.27;;;7.30;;
249;SDS011;109;19.806;-70.704;2024-03-22T13:24:46;9.83;;;6.20;;
249;SDS011;109;19.806;-70.704;2024-03-22T13:27:16;12.90;;;6.77;;
249;SDS011;109;19.806;-70.704;2024-03-22T13:29:42;10.70;;;7.40;;
249;SDS011;109;19.806;-70.704;2024-03-22T13:32:09;17.67;;;8.10;;
249;SDS011;109;19.806;-70.704;2024-03-22T13:34:36;19.90;;;7.17;;
249;SDS011;109;19.806;-70.704;2024-03-22T13:37:03;19.30;;;9.30;;
249;SDS011;109;19.806;-70.704;2024-03-22T13:39:31;21.10;;;11.47;;
249;SDS011;109;19.806;-70.704;2024-03-22T13:41:58;22.73;;;10.33;;
249;SDS011;109;19.806;-70.704;2024-03-22T13:44:24;17.67;;;7.67;;
249;SDS011;109;19.806;-70.704;2024-03-22T13:46:51;7.33;;;6.27;;
249;SDS011;109;19.806;-70.704;2024-03-22T13:49:18;19.00;;;7.30;;
249;SDS011;109;19.806;-70.704;2024-03-22T13:51:46;14.77;;;8.53;;
249;SDS011;109;19.806;-70.704;2024-03-22T13:54:14;10.27;;;7.30;;
249;SDS011;109;19.806;-70.704;2024-03-22T13:56:40;15.20;;;7.33;;
249;SDS011;109;19.806;-70.704;2024-03-22T13:59:07;10.53;;;7.43;;
249;SDS011;109;19.806;-70.704;2024-03-22T14:01:37;10.43;;;7.10;;
249;SDS011;109;19.806;-70.704;2024-03-22T14:04:07;15.23;;;7.30;;
249;SDS011;109;19.806;-70.704;2024-03-22T14:06:33;19.87;;;7.80;;
249;SDS011;109;19.806;-70.704;2024-03-22T14:08:59;16.30;;;7.60;;
249;SDS011;109;19.806;-70.704;2024-03-22T14:11:27;19.33;;;7.80;;
249;SDS011;109;19.806;-70.704;2024-03-22T14:13:59;15.20;;;8.27;;
249;SDS011;109;19.806;-70.704;2024-03-22T14:16:25;15.10;;;8.43;;
249;SDS011;109;19.806;-70.704;2024-03-22T14:18:52;13.63;;;7.73;;
249;SDS011;109;19.806;-70.704;2024-03-22T14:21:19;19.53;;;7.90;;
249;SDS011;109;19.806;-70.704;2024-03-22T14:23:49;15.50;;;9.53;;
249;SDS011;109;19.806;-70.704;2024-03-22T14:26:17;17.60;;;8.27;;
249;SDS011;109;19.806;-70.704;2024-03-22T14:28:44;15.80;;;8.03;;
249;SDS011;109;19.806;-70.704;2024-03-22T14:31:12;16.87;;;8.30;;
249;SDS011;109;19.806;-70.704;2024-03-22T14:33:39;16.63;;;8.40;;
249;SDS011;109;19.806;-70.704;2024-03-22T14:36:06;34.47;;;10.33;;
249;SDS011;109;19.806;-70.704;2024-03-22T14:38:34;21.93;;;9.33;;
249;SDS011;109;19.806;-70.704;2024-03-22T14:41:02;13.63;;;8.83;;
249;SDS011;109;19.806;-70.704;2024-03-22T14:43:29;14.53;;;8.57;;
249;SDS011;109;19.806;-70.704;2024-03-22T14:46:04;14.47;;;8.53;;
249;SDS011;109;19.806;-70.704;2024-03-22T14:48:31;18.40;;;9.23;;
249;SDS011;109;19.806;-70.704;2024-03-22T14:50:57;17.37;;;9.13;;
249;SDS011;109;19.806;-70.704;2024-03-22T14:53:24;14.70;;;8.90;;
249;SDS011;109;19.806;-70.704;2024-03-22T14:55:57;16.83;;;9.17;;
249;SDS011;109;19.806;-70.704;2024-03-22T14:58:27;17.60;;;9.67;;
249;SDS011;109;19.806;-70.704;2024-03-22T15:00:56;14.60;;;10.13;;
249;SDS011;109;19.806;-70.704;2024-03-22T15:03:23;14.50;;;10.30;;
249;SDS011;109;19.806;-70.704;2024-03-22T15:05:50;16.40;;;9.40;;
249;SDS011;109;19.806;-70.704;2024-03-22T15:08:17;18.17;;;9.60;;
249;SDS011;109;19.806;-70.704;2024-03-22T15:10:44;19.00;;;9.60;;
249;SDS011;109;19.806;-70.704;2024-03-22T15:13:11;14.27;;;8.60;;
249;SDS011;109;19.806;-70.704;2024-03-22T15:15:39;16.67;;;9.40;;
249;SDS011;109;19.806;-70.704;2024-03-22T15:18:06;11.70;;;8.87;;
249;SDS011;109;19.806;-70.704;2024-03-22T15:20:33;16.90;;;8.80;;
249;SDS011;109;19.806;-70.704;2024-03-22T15:23:00;12.97;;;8.53;;
249;SDS011;109;19.806;-70.704;2024-03-22T15:25:27;15.90;;;7.77;;
249;SDS011;109;19.806;-70.704;2024-03-22T15:27:54;18.60;;;7.30;;
249;SDS011;109;19.806;-70.704;2024-03-22T15:30:21;17.90;;;8.20;;
249;SDS011;109;19.806;-70.704;2024-03-22T15:32:47;16.30;;;7.57;;
249;SDS011;109;19.806;-70.704;2024-03-22T15:35:14;27.87;;;8.37;;
249;SDS011;109;19.806;-70.704;2024-03-22T15:37:40;33.93;;;9.50;;
249;SDS011;109;19.806;-70.704;2024-03-22T15:40:07;30.60;;;7.80;;
249;SDS011;109;19.806;-70.704;2024-03-22T15:42:35;21.83;;;7.90;;
249;SDS011;109;19.806;-70.704;2024-03-22T15:45:02;32.13;;;8.90;;
249;SDS011;109;19.806;-70.704;2024-03-22T15:47:31;35.50;;;9.50;;
249;SDS011;109;19.806;-70.704;2024-03-22T15:49:58;14.67;;;6.90;;
249;SDS011;109;19.806;-70.704;2024-03-22T15:52:25;15.73;;;6.63;;
249;SDS011;109;19.806;-70.704;2024-03-22T15:54:52;16.50;;;6.90;;
249;SDS011;109;19.806;-70.704;2024-03-22T15:57:20;13.77;;;7.13;;
249;SDS011;109;19.806;-70.704;2024-03-22T15:59:47;15.90;;;7.20;;
249;SDS011;109;19.806;-70.704;2024-03-22T16:02:13;15.00;;;6.90;;
249;SDS011;109;19.806;-70.704;2024-03-22T16:04:41;13.10;;;7.40;;
249;SDS011;109;19.806;-70.704;2024-03-22T16:07:10;14.20;;;6.90;;
249;SDS011;109;19.806;-70.704;2024-03-22T16:09:37;12.60;;;7.40;;
249;SDS011;109;19.806;-70.704;2024-03-22T16:12:04;15.13;;;8.33;;
249;SDS011;109;19.806;-70.704;2024-03-22T16:14:31;13.60;;;8.13;;
249;SDS011;109;19.806;-70.704;2024-03-22T16:16:57;15.17;;;8.77;;
249;SDS011;109;19.806;-70.704;2024-03-22T16:19:24;14.37;;;7.73;;
249;SDS011;109;19.806;-70.704;2024-03-22T16:21:51;14.10;;;7.40;;
249;SDS011;109;19.806;-70.704;2024-03-22T16:24:17;13.43;;;7.17;;
249;SDS011;109;19.806;-70.704;2024-03-22T16:26:47;12.20;;;7.27;;
249;SDS011;109;19.806;-70.704;2024-03-22T16:29:13;11.03;;;5.90;;
249;SDS011;109;19.806;-70.704;2024-03-22T16:31:40;10.40;;;5.40;;
249;SDS011;109;19.806;-70.704;2024-03-22T16:34:07;12.50;;;6.40;;
249;SDS011;109;19.806;-70.704;2024-03-22T16:36:34;12.93;;;6.00;;
249;SDS011;109;19.806;-70.704;2024-03-22T16:39:01;9.63;;;6.10;;
249;SDS011;109;19.806;-70.704;2024-03-22T16:41:30;18.73;;;6.50;;
249;SDS011;109;19.806;-70.704;2024-03-22T16:43:57;19.37;;;6.00;;
249;SDS011;109;19.806;-70.704;2024-03-22T16:46:23;19.63;;;5.33;;
249;SDS011;109;19.806;-70.704;2024-03-22T16:48:50;12.30;;;5.50;;
249;SDS011;109;19.806;-70.704;2024-03-22T16:51:17;12.13;;;5.50;;
249;SDS011;109;19.806;-70.704;2024-03-22T16:53:43;13.30;;;5.73;;
249;SDS011;109;19.806;-70.704;2024-03-22T16:56:09;11.00;;;5.73;;
249;SDS011;109;19.806;-70.704;2024-03-22T16:58:36;32.00;;;6.70;;
249;SDS011;109;19.806;-70.704;2024-03-22T17:01:03;21.53;;;7.37;;
249;SDS011;109;19.806;-70.704;2024-03-22T17:03:31;29.10;;;7.10;;
249;SDS011;109;19.806;-70.704;2024-03-22T17:05:57;18.63;;;6.40;;
249;SDS011;109;19.806;-70.704;2024-03-22T17:08:23;15.07;;;5.67;;
249;SDS011;109;19.806;-70.704;2024-03-22T17:10:50;14.30;;;5.97;;
249;SDS011;109;19.806;-70.704;2024-03-22T17:13:22;24.40;;;5.60;;
249;SDS011;109;19.806;-70.704;2024-03-22T17:15:49;17.60;;;7.30;;
249;SDS011;109;19.806;-70.704;2024-03-22T17:18:19;16.00;;;5.50;;
249;SDS011;109;19.806;-70.704;2024-03-22T17:20:46;33.23;;;6.67;;
249;SDS011;109;19.806;-70.704;2024-03-22T17:23:13;14.50;;;5.70;;
249;SDS011;109;19.806;-70.704;2024-03-22T17:25:40;20.27;;;6.60;;
249;SDS011;109;19.806;-70.704;2024-03-22T17:28:07;16.60;;;6.03;;
249;SDS011;109;19.806;-70.704;2024-03-22T17:30:34;24.07;;;6.20;;
249;SDS011;109;19.806;-70.704;2024-03-22T17:33:01;13.27;;;5.60;;
249;SDS011;109;19.806;-70.704;2024-03-22T17:35:28;13.53;;;5.60;;
249;SDS011;109;19.806;-70.704;2024-03-22T17:37:58;13.47;;;5.77;;
249;SDS011;109;19.806;-70.704;2024-03-22T17:40:25;12.80;;;6.53;;
249;SDS011;109;19.806;-70.704;2024-03-22T17:42:51;11.43;;;5.40;;
249;SDS011;109;19.806;-70.704;2024-03-22T17:45:18;17.20;;;5.27;;
249;SDS011;109;19.806;-70.704;2024-03-22T17:47:47;15.17;;;4.90;;
249;SDS011;109;19.806;-70.704;2024-03-22T17:50:14;19.23;;;5.27;;
249;SDS011;109;19.806;-70.704;2024-03-22T17:52:40;12.77;;;4.40;;
249;SDS011;109;19.806;-70.704;2024-03-22T17:55:07;15.27;;;4.67;;
249;SDS011;109;19.806;-70.704;2024-03-22T17:57:33;6.70;;;3.90;;
249;SDS011;109;19.806;-70.704;2024-03-22T17:59:59;9.20;;;4.03;;
249;SDS011;109;19.806;-70.704;2024-03-22T18:02:26;15.83;;;4.10;;
249;SDS011;109;19.806;-70.704;2024-03-22T18:04:52;19.60;;;5.90;;
249;SDS011;109;19.806;-70.704;2024-03-22T18:07:19;24.97;;;6.53;;
249;SDS011;109;19.806;-70.704;2024-03-22T18:09:45;19.90;;;6.23;;
249;SDS011;109;19.806;-70.704;2024-03-22T18:12:12;14.80;;;4.90;;
249;SDS011;109;19.806;-70.704;2024-03-22T18:14:39;19.03;;;5.50;;
249;SDS011;109;19.806;-70.704;2024-03-22T18:17:06;21.30;;;5.67;;
249;SDS011;109;19.806;-70.704;2024-03-22T18:19:32;11.30;;;4.77;;
249;SDS011;109;19.806;-70.704;2024-03-22T18:21:59;9.70;;;4.73;;
249;SDS011;109;19.806;-70.704;2024-03-22T18:24:26;17.30;;;5.10;;
249;SDS011;109;19.806;-70.704;2024-03-22T18:26:52;15.23;;;4.80;;
249;SDS011;109;19.806;-70.704;2024-03-22T18:29:19;9.77;;;4.30;;
249;SDS011;109;19.806;-70.704;2024-03-22T18:31:46;15.30;;;5.67;;
249;SDS011;109;19.806;-70.704;2024-03-22T18:34:13;19.17;;;5.87;;
249;SDS011;109;19.806;-70.704;2024-03-22T18:36:41;12.50;;;4.87;;
249;SDS011;109;19.806;-70.704;2024-03-22T18:39:08;19.27;;;4.83;;
249;SDS011;109;19.806;-70.704;2024-03-22T18:41:35;17.73;;;4.87;;
249;SDS011;109;19.806;-70.704;2024-03-22T18:44:01;11.53;;;5.07;;
249;SDS011;109;19.806;-70.704;2024-03-22T18:46:27;17.80;;;5.27;;
249;SDS011;109;19.806;-70.704;2024-03-22T18:48:54;9.23;;;4.87;;
249;SDS011;109;19.806;-70.704;2024-03-22T18:51:21;21.90;;;5.97;;
249;SDS011;109;19.806;-70.704;2024-03-22T18:53:47;18.53;;;6.07;;
249;SDS011;109;19.806;-70.704;2024-03-22T18:56:14;8.50;;;5.10;;
249;SDS011;109;19.806;-70.704;2024-03-22T18:58:41;14.47;;;5.77;;
249;SDS011;109;19.806;-70.704;2024-03-22T19:01:09;12.03;;;5.77;;
249;SDS011;109;19.806;-70.704;2024-03-22T19:03:36;14.83;;;5.07;;
249;SDS011;109;19.806;-70.704;2024-03-22T19:06:02;20.80;;;6.30;;
249;SDS011;109;19.806;-70.704;2024-03-22T19:08:29;13.77;;;6.10;;
249;SDS011;109;19.806;-70.704;2024-03-22T19:10:55;18.70;;;5.90;;
249;SDS011;109;19.806;-70.704;2024-03-22T19:13:22;16.10;;;5.90;;
249;SDS011;109;19.806;-70.704;2024-03-22T19:15:55;17.60;;;5.67;;
249;SDS011;109;19.806;-70.704;2024-03-22T19:18:22;14.63;;;5.30;;
249;SDS011;109;19.806;-70.704;2024-03-22T19:20:51;14.80;;;5.07;;
249;SDS011;109;19.806;-70.704;2024-03-22T19:23:18;14.83;;;5.40;;
249;SDS011;109;19.806;-70.704;2024-03-22T19:25:44;12.63;;;5.60;;
249;SDS011;109;19.806;-70.704;2024-03-22T19:28:11;11.13;;;5.90;;
249;SDS011;109;19.806;-70.704;2024-03-22T19:30:37;13.27;;;5.87;;
249;SDS011;109;19.806;-70.704;2024-03-22T19:33:05;24.63;;;5.63;;
249;SDS011;109;19.806;-70.704;2024-03-22T19:35:34;9.37;;;4.90;;
249;SDS011;109;19.806;-70.704;2024-03-22T19:38:00;13.10;;;5.50;;
249;SDS011;109;19.806;-70.704;2024-03-22T19:40:27;12.47;;;5.43;;
249;SDS011;109;19.806;-70.704;2024-03-22T19:42:53;10.77;;;5.20;;
249;SDS011;109;19.806;-70.704;2024-03-22T19:45:20;12.00;;;5.00;;
249;SDS011;109;19.806;-70.704;2024-03-22T19:47:46;15.67;;;5.30;;
249;SDS011;109;19.806;-70.704;2024-03-22T19:50:13;16.23;;;5.97;;
249;SDS011;109;19.806;-70.704;2024-03-22T19:52:39;15.50;;;5.27;;
249;SDS011;109;19.806;-70.704;2024-03-22T19:55:06;14.70;;;5.00;;
249;SDS011;109;19.806;-70.704;2024-03-22T19:57:33;13.53;;;5.40;;
249;SDS011;109;19.806;-70.704;2024-03-22T20:00:00;12.47;;;4.93;;
249;SDS011;109;19.806;-70.704;2024-03-22T20:02:26;18.43;;;5.13;;
249;SDS011;109;19.806;-70.704;2024-03-22T20:04:53;19.23;;;4.70;;
249;SDS011;109;19.806;-70.704;2024-03-22T20:07:19;16.80;;;6.17;;
249;SDS011;109;19.806;-70.704;2024-03-22T20:09:46;17.17;;;5.50;;
249;SDS011;109;19.806;-70.704;2024-03-22T20:12:12;21.50;;;5.83;;
249;SDS011;109;19.806;-70.704;2024-03-22T20:14:38;13.23;;;5.33;;
249;SDS011;109;19.806;-70.704;2024-03-22T20:17:05;26.37;;;6.20;;
249;SDS011;109;19.806;-70.704;2024-03-22T20:19:31;14.83;;;5.60;;
249;SDS011;109;19.806;-70.704;2024-03-22T20:21:58;17.43;;;6.00;;
249;SDS011;109;19.806;-70.704;2024-03-22T20:24:24;12.57;;;4.73;;
249;SDS011;109;19.806;-70.704;2024-03-22T20:26:51;13.87;;;5.37;;
249;SDS011;109;19.806;-70.704;2024-03-22T20:29:17;16.73;;;5.00;;
249;SDS011;109;19.806;-70.704;2024-03-22T20:31:44;19.37;;;6.20;;
249;SDS011;109;19.806;-70.704;2024-03-22T20:34:10;14.43;;;5.10;;
249;SDS011;109;19.806;-70.704;2024-03-22T20:36:37;31.37;;;6.27;;
